createdAt,value
2022-12-01T00:02:15.990Z,98463.20
2022-12-01T00:04:44.322Z,98467.67
2022-12-01T00:07:12.404Z,98465.73
2022-12-01T00:09:59.375Z,98465.02
2022-12-01T00:12:29.446Z,98468.49
2022-12-01T00:15:01.311Z,98469.96
2022-12-01T00:17:30.328Z,98468.97
2022-12-01T00:19:58.491Z,98467.46
2022-12-01T00:22:26.765Z,98468.35
2022-12-01T00:24:54.862Z,98465.16
2022-12-01T00:27:23.017Z,98466.79
2022-12-01T00:29:51.141Z,98468.20
2022-12-01T00:32:19.580Z,98468.41
2022-12-01T00:34:47.807Z,98472.58
2022-12-01T00:37:16.089Z,98471.01
2022-12-01T00:39:44.070Z,98470.09
2022-12-01T00:42:13.558Z,98474.82
2022-12-01T00:44:42.045Z,98478.75
2022-12-01T00:47:10.081Z,98478.45
2022-12-01T00:49:38.321Z,98476.73
2022-12-01T00:52:06.784Z,98475.37
2022-12-01T00:54:35.028Z,98474.13
2022-12-01T00:57:03.420Z,98475.85
2022-12-01T00:59:31.605Z,98472.91
2022-12-01T01:02:00.388Z,98472.75
2022-12-01T01:04:33.389Z,98471.13
2022-12-01T01:07:02.223Z,98471.81
2022-12-01T01:09:31.751Z,98474.06
2022-12-01T01:12:00.333Z,98472.80
2022-12-01T01:14:28.800Z,98470.87
2022-12-01T01:16:57.161Z,98467.62
2022-12-01T01:19:25.704Z,98464.99
2022-12-01T01:21:53.951Z,98462.64
2022-12-01T01:24:22.125Z,98460.55
2022-12-01T01:26:50.541Z,98458.88
2022-12-01T01:29:18.665Z,98453.39
2022-12-01T01:31:46.986Z,98450.98
2022-12-01T01:34:15.339Z,98450.21
2022-12-01T01:36:44.584Z,98445.48
2022-12-01T01:39:12.655Z,98443.48
2022-12-01T01:41:40.976Z,98441.20
2022-12-01T01:44:46.138Z,98439.86
2022-12-01T01:47:16.050Z,98445.26
2022-12-01T01:49:44.453Z,98443.10
2022-12-01T01:52:13.400Z,98446.61
2022-12-01T01:54:47.999Z,98449.07
2022-12-01T01:57:23.227Z,98446.14
2022-12-01T01:59:57.680Z,98449.55
2022-12-01T02:02:26.016Z,98449.15
2022-12-01T02:05:01.891Z,98446.27
2022-12-01T02:07:30.181Z,98443.25
2022-12-01T02:09:58.954Z,98444.42
2022-12-01T02:12:39.011Z,98442.82
2022-12-01T02:15:23.652Z,98441.63
2022-12-01T02:18:05.314Z,98434.77
2022-12-01T02:21:04.664Z,98435.46
2022-12-01T02:23:51.143Z,98432.75
2022-12-01T02:26:31.330Z,98429.77
2022-12-01T02:29:33.832Z,98428.13
2022-12-01T02:32:17.291Z,98427.46
2022-12-01T02:34:56.896Z,98427.04
2022-12-01T02:37:48.879Z,98424.95
2022-12-01T02:40:35.855Z,98425.63
2022-12-01T02:43:12.777Z,98429.14
2022-12-01T02:45:45.796Z,98425.71
2022-12-01T02:48:26.214Z,98426.23
2022-12-01T02:50:58.852Z,98424.29
2022-12-01T02:53:27.126Z,98426.27
2022-12-01T02:55:58.498Z,98426.92
2022-12-01T02:58:26.616Z,98424.73
2022-12-01T03:01:46.246Z,98423.46
2022-12-01T03:04:20.742Z,98428.27
2022-12-01T03:07:35.397Z,98426.62
2022-12-01T03:10:28.430Z,98427.25
2022-12-01T03:13:02.356Z,98424.48
2022-12-01T03:15:52.119Z,98420.70
2022-12-01T03:18:38.669Z,98420.70
2022-12-01T03:21:20.676Z,98420.38
2022-12-01T03:23:55.450Z,98420.08
2022-12-01T03:26:26.366Z,98418.92
2022-12-01T03:29:00.461Z,98421.79
2022-12-01T03:31:35.399Z,98420.68
2022-12-01T03:34:19.436Z,98420.33
2022-12-01T03:36:53.167Z,98428.81
2022-12-01T03:39:26.321Z,98428.50
2022-12-01T03:42:00.004Z,98425.30
2022-12-01T03:44:54.186Z,98426.91
2022-12-01T03:47:32.150Z,98429.20
2022-12-01T03:50:00.896Z,98429.61
2022-12-01T03:52:45.633Z,98427.04
2022-12-01T03:55:31.670Z,98426.25
2022-12-01T03:58:21.250Z,98424.33
2022-12-01T04:00:53.507Z,98422.90
2022-12-01T04:03:25.645Z,98420.60
2022-12-01T04:05:54.227Z,98419.60
2022-12-01T04:08:22.537Z,98422.19
2022-12-01T04:10:51.101Z,98421.63
2022-12-01T04:13:23.383Z,98423.62
2022-12-01T04:15:53.076Z,98424.84
2022-12-01T04:18:22.152Z,98424.43
2022-12-01T04:20:50.726Z,98428.37
2022-12-01T04:23:57.487Z,98425.91
2022-12-01T04:26:25.594Z,98427.40
2022-12-01T04:28:53.849Z,98425.66
2022-12-01T04:31:22.091Z,98423.46
2022-12-01T04:33:50.311Z,98426.77
2022-12-01T04:36:18.469Z,98424.09
2022-12-01T04:38:46.723Z,98422.52
2022-12-01T04:41:14.929Z,98420.44
2022-12-01T04:43:43.242Z,98419.92
2022-12-01T04:46:12.193Z,98420.04
2022-12-01T04:48:40.756Z,98419.77
2022-12-01T04:51:09.473Z,98423.83
2022-12-01T04:53:38.194Z,98427.29
2022-12-01T04:56:06.681Z,98430.86
2022-12-01T04:58:37.957Z,98433.63
2022-12-01T05:01:09.288Z,98435.20
2022-12-01T05:03:39.569Z,98433.77
2022-12-01T05:06:14.154Z,98431.83
2022-12-01T05:08:42.278Z,98435.86
2022-12-01T05:11:12.322Z,98437.39
2022-12-01T05:13:42.494Z,98440.27
2022-12-01T05:16:19.919Z,98437.83
2022-12-01T05:19:13.845Z,98437.71
2022-12-01T05:21:43.782Z,98434.84
2022-12-01T05:24:13.204Z,98431.91
2022-12-01T05:26:43.038Z,98433.06
2022-12-01T05:29:12.566Z,98432.92
2022-12-01T05:31:40.848Z,98433.17
2022-12-01T05:34:09.744Z,98433.42
2022-12-01T05:36:37.905Z,98433.48
2022-12-01T05:39:06.038Z,98435.98
2022-12-01T05:41:34.273Z,98436.85
2022-12-01T05:44:02.290Z,98432.81
2022-12-01T05:46:30.534Z,98436.92
2022-12-01T05:48:58.858Z,98437.86
2022-12-01T05:51:27.155Z,98438.17
2022-12-01T05:53:55.316Z,98438.43
2022-12-01T05:56:23.509Z,98441.06
2022-12-01T05:58:51.700Z,98442.31
2022-12-01T06:01:19.941Z,98443.54
2022-12-01T06:03:48.278Z,98444.11
2022-12-01T06:06:16.598Z,98443.59
2022-12-01T06:08:44.711Z,98444.69
2022-12-01T06:11:12.878Z,98447.20
2022-12-01T06:13:40.877Z,98449.30
2022-12-01T06:16:09.380Z,98444.16
2022-12-01T06:18:39.222Z,98445.89
2022-12-01T06:21:07.664Z,98444.38
2022-12-01T06:23:35.937Z,98441.05
2022-12-01T06:26:04.544Z,98438.79
2022-12-01T06:28:32.757Z,98434.42
2022-12-01T06:31:03.422Z,98433.40
2022-12-01T06:33:32.386Z,98432.81
2022-12-01T06:36:07.100Z,98433.21
2022-12-01T06:38:36.954Z,98436.74
2022-12-01T06:41:06.022Z,98439.95
2022-12-01T06:43:37.951Z,98439.75
2022-12-01T06:46:06.415Z,98438.17
2022-12-01T06:48:34.841Z,98437.49
2022-12-01T06:51:03.597Z,98439.60
2022-12-01T06:53:31.931Z,98443.37
2022-12-01T06:56:01.678Z,98444.26
2022-12-01T06:58:30.618Z,98442.34
2022-12-01T07:00:59.485Z,98443.10
2022-12-01T07:03:27.716Z,98442.40
2022-12-01T07:06:00.685Z,98443.21
2022-12-01T07:08:29.867Z,98443.90
2022-12-01T07:11:07.790Z,98438.52
2022-12-01T07:13:36.728Z,98437.05
2022-12-01T07:16:06.291Z,98433.26
2022-12-01T07:18:36.026Z,98429.33
2022-12-01T07:21:07.247Z,98431.56
2022-12-01T07:23:36.559Z,98433.64
2022-12-01T07:26:04.678Z,98436.48
2022-12-01T07:28:33.623Z,98435.23
2022-12-01T07:31:10.111Z,98430.80
2022-12-01T07:33:38.804Z,98432.56
2022-12-01T07:36:07.825Z,98432.17
2022-12-01T07:38:36.401Z,98429.01
2022-12-01T07:41:10.669Z,98429.45
2022-12-01T07:43:39.840Z,98429.98
2022-12-01T07:46:22.372Z,98425.63
2022-12-01T07:48:53.020Z,98429.48
2022-12-01T07:51:22.327Z,98428.81
2022-12-01T07:53:51.556Z,98430.54
2022-12-01T07:56:21.396Z,98424.88
2022-12-01T07:58:49.697Z,98418.61
2022-12-01T08:01:20.657Z,98415.54
2022-12-01T08:03:50.362Z,98415.21
2022-12-01T08:06:19.173Z,98414.69
2022-12-01T08:08:47.849Z,98409.16
2022-12-01T08:11:19.632Z,98408.86
2022-12-01T08:13:48.364Z,98408.55
2022-12-01T08:16:18.724Z,98409.11
2022-12-01T08:18:47.309Z,98404.02
2022-12-01T08:21:18.039Z,98403.75
2022-12-01T08:23:46.316Z,98406.53
2022-12-01T08:26:17.908Z,98400.31
2022-12-01T08:28:46.966Z,98397.25
2022-12-01T08:31:31.794Z,98401.59
2022-12-01T08:33:59.951Z,98399.73
2022-12-01T11:31:00.456Z,98247.34
2022-12-01T11:34:34.699Z,98245.42
2022-12-01T11:37:06.874Z,98245.92
2022-12-01T11:39:41.346Z,98242.92
2022-12-01T11:42:12.185Z,98242.83
2022-12-01T11:47:56.011Z,98245.25
2022-12-01T11:50:27.462Z,98244.22
2022-12-01T11:52:55.619Z,98239.55
2022-12-01T11:55:27.153Z,98242.96
2022-12-01T11:58:04.112Z,98240.06
2022-12-01T12:00:47.481Z,98235.35
2022-12-01T12:03:32.765Z,98236.17
2022-12-01T12:06:42.337Z,98234.85
2022-12-01T12:09:54.900Z,98235.20
2022-12-01T12:12:36.687Z,98238.40
2022-12-01T12:15:25.940Z,98234.21
2022-12-01T12:17:54.018Z,98232.52
2022-12-01T12:20:29.855Z,98235.73
2022-12-01T12:23:34.776Z,98233.45
2022-12-01T12:26:43.816Z,98233.51
2022-12-01T12:29:27.163Z,98235.41
2022-12-01T12:32:05.684Z,98233.51
2022-12-01T12:34:39.385Z,98235.96
2022-12-01T12:37:50.805Z,98235.45
2022-12-01T12:40:30.558Z,98233.52
2022-12-01T12:43:20.149Z,98235.88
2022-12-01T12:46:06.664Z,98231.86
2022-12-01T12:49:18.523Z,98229.83
2022-12-01T12:51:50.726Z,98231.30
2022-12-01T12:54:36.252Z,98230.20
2022-12-01T12:57:28.927Z,98230.60
2022-12-01T13:00:05.669Z,98227.95
2022-12-01T13:02:58.865Z,98231.65
2022-12-01T13:05:44.017Z,98231.94
2022-12-01T13:08:24.256Z,98232.51
2022-12-01T13:11:01.180Z,98236.08
2022-12-01T13:13:55.945Z,98240.80
2022-12-01T13:16:40.609Z,98239.06
2022-12-01T13:19:11.353Z,98239.71
2022-12-01T13:21:43.295Z,98239.27
2022-12-01T13:24:23.000Z,98241.81
2022-12-01T13:26:58.632Z,98238.48
2022-12-01T13:29:29.577Z,98237.94
2022-12-01T13:31:57.711Z,98244.23
2022-12-01T13:34:30.702Z,98244.42
2022-12-01T13:36:58.931Z,98245.20
2022-12-01T13:39:36.324Z,98243.64
2022-12-01T13:42:40.157Z,98237.17
2022-12-01T13:45:37.702Z,98238.93
2022-12-01T13:48:50.756Z,98228.58
2022-12-01T13:56:17.876Z,98232.51
2022-12-01T13:58:49.878Z,98229.02
2022-12-01T14:01:29.655Z,98228.50
2022-12-01T14:04:15.496Z,98227.11
2022-12-01T14:06:59.986Z,98228.80
2022-12-01T14:09:45.277Z,98227.81
2022-12-01T14:16:58.609Z,98233.70
2022-12-01T14:19:41.936Z,98233.83
2022-12-01T14:22:35.705Z,98229.53
2022-12-01T14:25:21.116Z,98233.43
2022-12-01T14:27:57.884Z,98235.92
2022-12-01T14:30:39.700Z,98236.31
2022-12-01T14:33:48.894Z,98240.05
2022-12-01T14:36:28.979Z,98240.47
2022-12-01T14:38:59.982Z,98239.44
2022-12-01T14:41:40.031Z,98237.86
2022-12-01T14:44:31.668Z,98240.39
2022-12-01T14:47:11.970Z,98239.34
2022-12-01T14:50:06.587Z,98238.08
2022-12-01T14:52:42.317Z,98237.27
2022-12-01T14:55:25.279Z,98237.49
2022-12-01T14:58:08.889Z,98234.05
2022-12-01T15:00:38.394Z,98234.16
2022-12-01T22:04:30.778Z,98301.16
2022-12-01T22:06:58.109Z,98303.52
2022-12-01T22:09:33.728Z,98300.89
2022-12-01T22:12:09.475Z,98300.73
2022-12-01T22:14:36.298Z,98297.88
2022-12-01T22:17:05.680Z,98294.32
2022-12-01T22:19:41.916Z,98296.69
2022-12-01T22:22:08.473Z,98297.83
2022-12-01T22:24:49.041Z,98294.34
2022-12-01T22:27:21.821Z,98295.37
2022-12-01T22:29:52.031Z,98291.60
2022-12-01T22:32:31.158Z,98293.65
2022-12-01T22:35:20.602Z,98296.94
2022-12-01T22:37:52.017Z,98297.86
2022-12-01T22:40:36.345Z,98296.68
2022-12-01T22:43:15.324Z,98294.82
2022-12-01T22:46:10.488Z,98292.77
2022-12-01T22:48:44.929Z,98288.38
2022-12-01T22:51:20.747Z,98289.36
2022-12-01T22:53:47.784Z,98287.92
2022-12-01T22:56:32.897Z,98284.06
2022-12-01T22:59:00.264Z,98282.80
2022-12-01T23:01:33.454Z,98281.77
2022-12-01T23:04:24.462Z,98286.50
2022-12-01T23:06:53.914Z,98283.59
2022-12-01T23:09:23.013Z,98286.02
2022-12-01T23:12:04.989Z,98284.06
2022-12-01T23:14:33.590Z,98284.91
2022-12-01T23:17:06.686Z,98282.42
2022-12-01T23:19:34.253Z,98282.58
2022-12-01T23:22:01.542Z,98284.27
2022-12-01T23:24:33.474Z,98285.19
2022-12-01T23:27:01.486Z,98285.63
2022-12-01T23:29:29.698Z,98287.25
2022-12-01T23:31:56.476Z,98286.50
2022-12-01T23:34:23.149Z,98286.00
2022-12-01T23:36:50.126Z,98287.89
2022-12-01T23:39:18.432Z,98284.91
2022-12-01T23:41:50.495Z,98285.33
2022-12-01T23:44:40.293Z,98283.66
2022-12-01T23:47:21.902Z,98282.41
2022-12-01T23:50:01.877Z,98282.84
2022-12-01T23:52:36.166Z,98278.73
2022-12-01T23:55:15.176Z,98284.98
2022-12-01T23:57:42.718Z,98283.67
